createdAt,value
2023-05-22T00:00:28.620Z,100860.84
2023-05-22T00:02:55.736Z,100862.94
2023-05-22T00:05:23.017Z,100861.39
2023-05-22T00:07:53.407Z,100860.05
2023-05-22T00:10:20.533Z,100857.26
2023-05-22T00:12:47.548Z,100856.89
2023-05-22T00:15:16.086Z,100855.92
2023-05-22T00:17:44.626Z,100856.88
2023-05-22T00:20:12.155Z,100855.98
2023-05-22T00:22:39.229Z,100853.40
2023-05-22T00:25:07.016Z,100850.34
2023-05-22T00:27:34.180Z,100852.92
2023-05-22T00:30:01.631Z,100850.77
2023-05-22T00:32:28.937Z,100848.56
2023-05-22T00:34:56.075Z,100851.52
2023-05-22T00:37:23.362Z,100851.90
2023-05-22T00:39:50.438Z,100855.17
2023-05-22T00:42:18.482Z,100854.95
2023-05-22T00:44:46.197Z,100849.70
2023-05-22T00:47:13.242Z,100851.65
2023-05-22T00:49:41.205Z,100853.09
2023-05-22T00:52:09.210Z,100851.04
2023-05-22T00:54:36.231Z,100850.69
2023-05-22T00:57:04.878Z,100849.43
2023-05-22T00:59:31.952Z,100852.27
2023-05-22T01:01:58.992Z,100853.67
2023-05-22T01:04:26.213Z,100853.98
2023-05-22T01:06:53.895Z,100846.85
2023-05-22T01:09:20.930Z,100850.92
2023-05-22T01:11:55.956Z,100847.92
2023-05-22T01:14:39.278Z,100845.34
2023-05-22T01:17:38.313Z,100841.27
2023-05-22T01:20:14.547Z,100840.41
2023-05-22T01:22:58.759Z,100834.86
2023-05-22T01:25:35.382Z,100833.21
2023-05-22T01:28:24.038Z,100835.19
2023-05-22T01:31:08.372Z,100840.80
2023-05-22T01:33:58.193Z,100840.05
2023-05-22T01:36:28.482Z,100839.23
2023-05-22T01:38:55.760Z,100838.98
2023-05-22T01:41:22.920Z,100838.31
2023-05-22T01:43:49.955Z,100836.70
2023-05-22T01:46:17.063Z,100837.98
2023-05-22T01:48:44.173Z,100837.77
2023-05-22T01:51:35.433Z,100839.38
2023-05-22T01:54:15.641Z,100837.17
2023-05-22T01:56:55.095Z,100829.34
2023-05-22T01:59:35.416Z,100831.50
2023-05-22T02:02:05.691Z,100828.86
2023-05-22T02:04:33.029Z,100825.45
2023-05-22T02:07:02.803Z,100825.83
2023-05-22T02:09:31.323Z,100831.40
2023-05-22T02:11:59.042Z,100832.58
2023-05-22T02:14:27.929Z,100825.89
2023-05-22T02:16:55.130Z,100829.62
2023-05-22T02:19:22.319Z,100826.02
2023-05-22T02:21:49.483Z,100825.25
2023-05-22T02:24:16.574Z,100820.69
2023-05-22T02:26:43.663Z,100820.42
2023-05-22T02:29:10.976Z,100819.63
2023-05-22T02:31:38.738Z,100820.65
2023-05-22T02:34:06.801Z,100815.90
2023-05-22T02:36:33.852Z,100818.42
2023-05-22T02:39:00.969Z,100818.86
2023-05-22T02:41:28.106Z,100821.02
2023-05-22T02:43:55.396Z,100819.41
2023-05-22T02:46:22.497Z,100817.30
2023-05-22T02:48:51.004Z,100820.16
2023-05-22T02:51:18.770Z,100819.80
2023-05-22T02:53:45.842Z,100817.52
2023-05-22T02:56:12.874Z,100819.86
2023-05-22T02:58:39.924Z,100822.98
2023-05-22T03:01:09.288Z,100824.70
2023-05-22T03:03:36.669Z,100822.23
2023-05-22T03:06:04.531Z,100822.77
2023-05-22T03:08:33.049Z,100825.60
2023-05-22T03:11:01.667Z,100826.13
2023-05-22T03:13:28.783Z,100828.70
2023-05-22T03:15:55.996Z,100829.95
2023-05-22T03:18:25.316Z,100830.84
2023-05-22T03:20:53.721Z,100833.15
2023-05-22T03:23:25.324Z,100833.52
2023-05-22T03:25:52.574Z,100831.89
2023-05-22T03:28:19.982Z,100829.36
2023-05-22T03:30:47.783Z,100830.95
2023-05-22T03:33:19.986Z,100828.14
2023-05-22T03:35:47.214Z,100826.39
2023-05-22T03:38:14.523Z,100823.08
2023-05-22T03:40:41.876Z,100822.77
2023-05-22T03:43:09.543Z,100821.77
2023-05-22T03:45:36.751Z,100825.50
2023-05-22T03:48:04.292Z,100826.68
2023-05-22T03:50:31.392Z,100823.39
2023-05-22T03:52:58.475Z,100825.14
2023-05-22T03:55:26.756Z,100820.79
2023-05-22T03:57:53.819Z,100820.07
2023-05-22T04:00:20.934Z,100820.38
2023-05-22T04:02:48.233Z,100822.57
2023-05-22T04:05:15.890Z,100822.55
2023-05-22T04:07:44.404Z,100821.66
2023-05-22T04:10:13.116Z,100818.56
2023-05-22T04:12:40.460Z,100817.14
2023-05-22T04:15:09.336Z,100815.48
2023-05-22T04:17:40.006Z,100814.55
2023-05-22T04:20:08.787Z,100814.69
2023-05-22T04:22:35.903Z,100815.39
2023-05-22T04:25:03.473Z,100812.02
2023-05-22T04:27:31.046Z,100809.69
2023-05-22T04:30:00.234Z,100804.95
2023-05-22T04:32:27.715Z,100803.38
2023-05-22T04:34:54.733Z,100798.70
2023-05-22T04:37:21.824Z,100799.70
2023-05-22T04:39:53.165Z,100800.34
2023-05-22T04:42:20.733Z,100792.80
2023-05-22T04:44:48.499Z,100791.44
2023-05-22T04:47:15.584Z,100796.31
2023-05-22T04:49:43.888Z,100801.86
2023-05-22T04:52:11.857Z,100800.29
2023-05-22T04:54:39.107Z,100796.88
2023-05-22T04:57:06.337Z,100799.38
2023-05-22T04:59:38.194Z,100803.59
2023-05-22T05:02:05.970Z,100796.84
2023-05-22T05:04:33.431Z,100798.65
2023-05-22T05:07:00.491Z,100799.86
2023-05-22T05:09:27.639Z,100799.73
2023-05-22T05:11:55.189Z,100797.67
2023-05-22T05:14:22.189Z,100798.27
2023-05-22T05:16:52.060Z,100793.02
2023-05-22T05:19:22.887Z,100791.91
2023-05-22T05:21:50.028Z,100789.22
2023-05-22T05:24:20.043Z,100789.81
2023-05-22T05:26:48.339Z,100787.96
2023-05-22T05:29:17.292Z,100789.52
2023-05-22T05:32:07.672Z,100792.24
2023-05-22T05:34:47.513Z,100793.02
2023-05-22T05:37:24.864Z,100799.65
2023-05-22T05:39:53.114Z,100795.83
2023-05-22T05:42:20.701Z,100795.89
2023-05-22T05:44:50.342Z,100791.86
2023-05-22T05:47:18.733Z,100786.36
2023-05-22T05:49:45.911Z,100784.55
2023-05-22T05:52:14.992Z,100788.50
2023-05-22T05:54:46.779Z,100785.86
2023-05-22T05:57:16.685Z,100782.88
2023-05-22T05:59:43.737Z,100781.04
2023-05-22T06:02:29.175Z,100781.32
2023-05-22T06:04:59.272Z,100779.92
2023-05-22T06:07:28.760Z,100771.66
2023-05-22T06:09:55.982Z,100771.69
2023-05-22T06:12:38.714Z,100769.44
2023-05-22T06:15:07.601Z,100769.66
2023-05-22T06:17:35.308Z,100765.87
2023-05-22T06:20:02.333Z,100761.98
2023-05-22T06:22:30.020Z,100764.93
2023-05-22T06:24:58.506Z,100758.42
2023-05-22T06:27:27.981Z,100759.31
2023-05-22T06:29:56.421Z,100758.09
2023-05-22T06:32:24.879Z,100759.26
2023-05-22T06:34:52.395Z,100757.57
2023-05-22T06:37:20.046Z,100759.78
2023-05-22T06:39:47.799Z,100754.46
2023-05-22T06:42:33.968Z,100751.08
2023-05-22T06:45:20.099Z,100753.21
2023-05-22T06:48:12.080Z,100753.85
2023-05-22T06:50:46.706Z,100747.86
2023-05-22T06:53:14.026Z,100750.68
2023-05-22T06:55:42.116Z,100747.63
2023-05-22T06:58:12.919Z,100747.04
2023-05-22T07:00:40.207Z,100744.84
2023-05-22T07:03:15.140Z,100746.55
2023-05-22T07:06:06.374Z,100747.88
2023-05-22T07:08:34.183Z,100740.99
2023-05-22T07:11:02.312Z,100746.15
2023-05-22T07:13:32.562Z,100743.87
2023-05-22T07:15:59.773Z,100742.26
2023-05-22T07:18:27.462Z,100743.51
2023-05-22T07:20:54.869Z,100747.74
2023-05-22T07:23:24.422Z,100741.77
2023-05-22T07:25:53.352Z,100737.02
2023-05-22T07:28:21.706Z,100739.19
2023-05-22T07:30:53.905Z,100739.55
2023-05-22T07:33:21.168Z,100739.40
2023-05-22T07:35:48.842Z,100733.71
2023-05-22T07:38:16.384Z,100733.41
2023-05-22T07:40:48.514Z,100736.95
2023-05-22T07:43:15.844Z,100734.25
2023-05-22T07:45:44.431Z,100729.77
2023-05-22T07:48:12.857Z,100728.63
2023-05-22T07:50:40.077Z,100725.13
2023-05-22T07:53:07.138Z,100723.89
2023-05-22T07:55:37.507Z,100720.55
2023-05-22T07:58:05.395Z,100722.12
2023-05-22T08:00:36.018Z,100719.90
2023-05-22T08:03:04.447Z,100715.63
2023-05-22T08:05:33.008Z,100713.39
2023-05-22T08:08:00.070Z,100714.05
2023-05-22T08:10:41.706Z,100715.77
2023-05-22T08:13:16.660Z,100709.02
2023-05-22T08:15:43.774Z,100709.39
2023-05-22T08:18:12.023Z,100712.52
2023-05-22T08:20:39.320Z,100714.96
2023-05-22T08:23:06.705Z,100711.59
2023-05-22T08:25:36.319Z,100705.40
2023-05-22T08:28:03.697Z,100702.30
2023-05-22T08:30:31.325Z,100698.38
2023-05-22T08:32:58.363Z,100696.31
2023-05-22T08:35:25.427Z,100706.03
2023-05-22T08:37:53.252Z,100704.95
2023-05-22T08:40:20.737Z,100710.67
2023-05-22T08:42:48.302Z,100710.69
2023-05-22T08:45:16.963Z,100707.24
2023-05-22T08:47:44.643Z,100708.30
2023-05-22T08:50:11.885Z,100703.93
2023-05-22T08:52:51.336Z,100705.98
2023-05-22T08:55:19.918Z,100703.27
2023-05-22T08:57:46.977Z,100699.48
2023-05-22T09:00:15.500Z,100704.34
2023-05-22T09:02:42.731Z,100702.56
2023-05-22T09:05:10.094Z,100700.55
2023-05-22T09:07:38.392Z,100702.42
2023-05-22T09:10:07.433Z,100697.90
2023-05-22T09:12:34.657Z,100690.92
2023-05-22T09:15:10.381Z,100701.73
2023-05-22T09:17:41.289Z,100696.65
2023-05-22T09:20:10.688Z,100696.85
2023-05-22T09:22:38.495Z,100698.36
2023-05-22T09:25:07.215Z,100699.42
2023-05-22T09:27:34.474Z,100695.55
2023-05-22T09:30:01.652Z,100694.47
2023-05-22T09:32:31.827Z,100688.98
2023-05-22T09:35:05.540Z,100690.52
2023-05-22T09:37:36.567Z,100686.23
2023-05-22T09:40:08.302Z,100680.84
2023-05-22T09:42:35.566Z,100673.98
2023-05-22T09:45:06.785Z,100669.63
2023-05-22T09:47:36.699Z,100671.66
2023-05-22T09:50:06.611Z,100675.78
2023-05-22T09:52:34.976Z,100677.83
2023-05-22T09:55:09.128Z,100670.88
2023-05-22T09:57:45.656Z,100673.00
2023-05-22T10:00:16.307Z,100667.90
2023-05-22T10:02:46.206Z,100669.67
2023-05-22T10:05:23.449Z,100668.73
2023-05-22T10:07:56.700Z,100667.77
2023-05-22T10:10:25.006Z,100661.02
2023-05-22T10:12:56.179Z,100653.01
2023-05-22T10:15:23.472Z,100650.13
2023-05-22T10:17:50.913Z,100653.45
2023-05-22T10:20:18.054Z,100654.91
2023-05-22T10:22:45.121Z,100652.80
2023-05-22T10:25:12.282Z,100652.58
2023-05-22T10:27:39.676Z,100654.89
2023-05-22T10:30:25.587Z,100655.29
2023-05-22T10:33:18.424Z,100654.81
2023-05-22T10:35:58.710Z,100655.56
2023-05-22T10:38:31.673Z,100649.02
2023-05-22T10:40:58.742Z,100641.19
2023-05-22T10:43:25.972Z,100636.52
2023-05-22T10:46:02.617Z,100636.77
2023-05-22T10:48:30.869Z,100629.02
2023-05-22T10:50:59.849Z,100631.74
2023-05-22T10:53:28.916Z,100629.54
2023-05-22T10:55:57.157Z,100623.58
2023-05-22T10:58:29.041Z,100618.11
2023-05-22T11:01:16.713Z,100610.91
2023-05-22T11:03:57.884Z,100603.88
2023-05-22T11:06:34.424Z,100605.52
2023-05-22T11:09:31.939Z,100611.23
2023-05-22T11:12:18.186Z,100612.03
2023-05-22T11:15:08.721Z,100613.35
2023-05-22T11:17:39.932Z,100612.20
2023-05-22T11:20:22.796Z,100612.11
2023-05-22T11:22:52.209Z,100604.23
2023-05-22T11:25:20.172Z,100614.09
2023-05-22T11:27:47.734Z,100607.51
2023-05-22T11:30:15.342Z,100603.33
2023-05-22T11:32:44.648Z,100606.31
2023-05-22T11:35:22.052Z,100601.95
2023-05-22T11:37:50.337Z,100606.79
2023-05-22T11:40:21.742Z,100603.92
2023-05-22T11:42:48.881Z,100601.45
2023-05-22T11:45:16.534Z,100596.73
2023-05-22T11:47:43.908Z,100588.39
2023-05-22T11:50:11.971Z,100591.26
2023-05-22T11:52:41.297Z,100583.02
2023-05-22T11:55:09.318Z,100583.54
2023-05-22T11:57:37.868Z,100588.58
2023-05-22T12:00:10.962Z,100585.94
2023-05-22T12:02:46.876Z,100584.64
2023-05-22T12:05:16.167Z,100583.96
2023-05-22T12:07:43.773Z,100580.84
2023-05-22T12:10:11.515Z,100577.00
2023-05-22T12:12:39.259Z,100576.26
2023-05-22T12:15:07.499Z,100572.49
2023-05-22T12:17:38.905Z,100571.65
2023-05-22T12:20:07.441Z,100571.09
2023-05-22T12:22:41.199Z,100575.33
2023-05-22T12:25:17.349Z,100564.48
2023-05-22T12:27:45.917Z,100563.45
2023-05-22T12:30:15.568Z,100560.70
2023-05-22T12:32:50.841Z,100558.41
2023-05-22T12:35:19.533Z,100552.98
2023-05-22T12:37:51.523Z,100553.09
2023-05-22T12:40:19.233Z,100550.66
2023-05-22T12:42:48.003Z,100554.27
2023-05-22T12:45:18.013Z,100553.30
2023-05-22T12:47:45.980Z,100548.95
2023-05-22T12:50:13.695Z,100548.53
2023-05-22T12:52:41.308Z,100547.58
2023-05-22T12:55:10.512Z,100549.11
2023-05-22T12:57:38.059Z,100547.91
2023-05-22T13:00:06.676Z,100545.38
2023-05-22T13:02:34.331Z,100540.86
2023-05-22T13:05:02.008Z,100536.27
2023-05-22T13:07:29.771Z,100535.66
2023-05-22T13:09:57.311Z,100527.52
2023-05-22T13:12:24.970Z,100520.37
2023-05-22T13:14:53.763Z,100523.16
2023-05-22T13:17:21.447Z,100525.00
2023-05-22T13:19:49.190Z,100522.11
2023-05-22T13:22:16.957Z,100518.92
2023-05-22T13:24:45.114Z,100521.86
2023-05-22T13:27:12.718Z,100518.83
2023-05-22T13:29:40.240Z,100515.48
2023-05-22T13:32:07.783Z,100517.57
2023-05-22T13:34:35.538Z,100518.80
2023-05-22T13:37:03.705Z,100513.57
2023-05-22T13:39:31.279Z,100509.96
2023-05-22T13:41:58.858Z,100505.96
2023-05-22T13:44:26.678Z,100507.05
2023-05-22T13:46:56.350Z,100507.89
2023-05-22T13:49:23.960Z,100507.40
2023-05-22T13:51:51.752Z,100504.05
2023-05-22T13:54:19.325Z,100506.66
2023-05-22T13:56:47.045Z,100500.22
2023-05-22T13:59:14.596Z,100501.68
2023-05-22T14:01:42.555Z,100501.96
2023-05-22T14:04:10.260Z,100497.67
2023-05-22T14:06:37.954Z,100496.20
2023-05-22T14:09:09.598Z,100497.13
2023-05-22T14:11:37.283Z,100495.05
2023-05-22T14:14:05.002Z,100493.00
2023-05-22T14:16:32.609Z,100489.73
2023-05-22T14:19:00.712Z,100484.77
2023-05-22T14:21:28.285Z,100484.54
2023-05-22T14:23:56.011Z,100487.50
2023-05-22T14:26:24.515Z,100485.36
2023-05-22T14:28:53.113Z,100486.48
2023-05-22T14:31:20.630Z,100484.83
2023-05-22T14:33:48.317Z,100484.52
2023-05-22T14:36:18.014Z,100478.54
2023-05-22T14:38:45.689Z,100477.59
2023-05-22T14:41:13.449Z,100470.98
2023-05-22T14:43:41.088Z,100470.06
2023-05-22T14:46:08.763Z,100468.02
2023-05-22T14:48:36.347Z,100461.71
2023-05-22T14:51:04.059Z,100457.54
2023-05-22T14:53:31.564Z,100461.55
2023-05-22T14:55:59.229Z,100461.11
2023-05-22T14:58:26.909Z,100453.27
2023-05-22T15:00:54.468Z,100457.96
2023-05-22T15:03:23.793Z,100459.48
2023-05-22T15:05:51.412Z,100456.50
2023-05-22T15:08:19.436Z,100458.83
2023-05-22T15:10:47.531Z,100455.14
2023-05-22T15:13:15.167Z,100452.77
2023-05-22T15:15:42.690Z,100453.62
2023-05-22T15:18:10.810Z,100454.38
2023-05-22T15:20:38.512Z,100452.95
2023-05-22T15:23:06.185Z,100452.81
2023-05-22T15:25:36.793Z,100457.13
2023-05-22T15:28:08.126Z,100452.77
2023-05-22T15:30:36.654Z,100455.11
2023-05-22T15:33:05.024Z,100449.46
2023-05-22T15:35:32.787Z,100446.84
2023-05-22T15:38:00.517Z,100442.20
2023-05-22T15:40:28.095Z,100440.03
2023-05-22T15:42:56.159Z,100442.91
2023-05-22T15:45:23.769Z,100446.34
2023-05-22T15:47:51.883Z,100450.02
2023-05-22T15:50:19.490Z,100440.96
2023-05-22T15:52:47.011Z,100441.62
2023-05-22T15:55:14.579Z,100440.83
2023-05-22T15:57:42.157Z,100445.30
2023-05-22T16:00:10.389Z,100442.55
2023-05-22T16:02:38.010Z,100444.00
2023-05-22T16:05:05.845Z,100448.98
2023-05-22T16:07:33.389Z,100447.42
2023-05-22T16:10:00.952Z,100448.45
2023-05-22T16:12:28.710Z,100451.04
2023-05-22T16:15:00.316Z,100449.30
2023-05-22T16:17:29.650Z,100453.47
2023-05-22T16:19:57.316Z,100451.77
2023-05-22T16:22:30.362Z,100456.95
2023-05-22T16:25:04.574Z,100455.08
2023-05-22T16:27:32.944Z,100456.70
2023-05-22T16:30:02.886Z,100452.86
2023-05-22T16:32:31.692Z,100454.70
2023-05-22T16:34:59.207Z,100457.80
2023-05-22T16:37:28.900Z,100457.74
2023-05-22T16:39:57.038Z,100459.51
2023-05-22T16:42:25.581Z,100456.81
2023-05-22T16:44:53.228Z,100461.52
2023-05-22T16:47:21.541Z,100465.39
2023-05-22T16:49:50.072Z,100464.09
2023-05-22T16:52:18.264Z,100466.84
2023-05-22T16:54:45.851Z,100470.73
2023-05-22T16:57:16.256Z,100472.94
2023-05-22T16:59:44.522Z,100474.61
2023-05-22T17:02:12.209Z,100475.94
2023-05-22T17:04:40.802Z,100478.59
2023-05-22T17:07:08.346Z,100480.95
2023-05-22T17:09:35.995Z,100477.55
2023-05-22T17:12:03.648Z,100477.83
2023-05-22T17:14:33.336Z,100480.66
2023-05-22T17:17:01.072Z,100483.23
2023-05-22T17:19:28.631Z,100482.80
2023-05-22T17:21:56.936Z,100486.46
2023-05-22T17:24:24.911Z,100483.79
2023-05-22T17:26:52.595Z,100487.43
2023-05-22T17:29:21.879Z,100487.09
2023-05-22T17:31:49.522Z,100485.25
2023-05-22T17:34:17.175Z,100482.66
2023-05-22T17:36:53.318Z,100484.77
2023-05-22T17:39:20.950Z,100487.67
2023-05-22T17:41:48.525Z,100490.41
2023-05-22T17:44:16.310Z,100490.58
2023-05-22T17:46:44.043Z,100492.08
2023-05-22T17:49:11.886Z,100497.27
2023-05-22T17:51:39.436Z,100497.64
2023-05-22T17:54:09.452Z,100500.02
2023-05-22T17:56:37.070Z,100502.05
2023-05-22T17:59:06.846Z,100497.33
2023-05-22T18:01:34.899Z,100501.02
2023-05-22T18:04:04.792Z,100504.35
2023-05-22T18:06:32.791Z,100503.65
2023-05-22T18:09:02.375Z,100503.20
2023-05-22T18:11:29.954Z,100508.85
2023-05-22T18:13:57.510Z,100507.20
2023-05-22T18:16:25.563Z,100515.77
2023-05-22T18:18:53.317Z,100516.45
2023-05-22T18:21:20.953Z,100512.36
2023-05-22T18:23:48.981Z,100515.42
2023-05-22T18:26:16.610Z,100517.96
2023-05-22T18:28:44.330Z,100513.88
2023-05-22T18:31:11.975Z,100514.52
2023-05-22T18:33:40.305Z,100517.34
2023-05-22T18:36:08.580Z,100515.04
2023-05-22T18:38:36.499Z,100512.71
2023-05-22T18:41:04.347Z,100516.98
2023-05-22T18:43:32.076Z,100516.91
2023-05-22T18:45:59.754Z,100520.98
2023-05-22T18:48:28.476Z,100517.95
2023-05-22T18:50:58.037Z,100515.88
2023-05-22T18:53:26.294Z,100517.41
2023-05-22T18:55:54.249Z,100518.79
2023-05-22T18:58:22.264Z,100516.45
2023-05-22T19:00:49.902Z,100514.48
2023-05-22T19:03:17.958Z,100513.52
2023-05-22T19:05:45.478Z,100513.79
2023-05-22T19:08:13.594Z,100510.88
2023-05-22T19:10:41.976Z,100511.77
2023-05-22T19:13:09.858Z,100517.41
2023-05-22T19:15:38.635Z,100511.66
2023-05-22T19:18:06.218Z,100513.35
2023-05-22T19:20:34.265Z,100514.71
2023-05-22T19:23:01.979Z,100512.77
2023-05-22T19:25:29.690Z,100510.98
2023-05-22T19:27:57.771Z,100513.98
2023-05-22T19:30:25.344Z,100516.06
2023-05-22T19:32:56.067Z,100514.47
2023-05-22T19:35:23.702Z,100515.23
2023-05-22T19:37:51.343Z,100513.80
2023-05-22T19:40:19.014Z,100509.21
2023-05-22T19:42:46.669Z,100508.27
2023-05-22T19:45:14.252Z,100507.90
2023-05-22T19:47:43.502Z,100508.14
2023-05-22T19:50:11.762Z,100509.77
2023-05-22T19:52:39.396Z,100514.00
2023-05-22T19:55:07.204Z,100512.73
2023-05-22T19:57:34.841Z,100516.25
2023-05-22T20:00:02.736Z,100513.88
2023-05-22T20:02:33.781Z,100518.72
2023-05-22T20:05:02.186Z,100515.83
2023-05-22T20:07:29.775Z,100517.66
2023-05-22T20:09:57.635Z,100515.73
2023-05-22T20:12:25.361Z,100517.17
2023-05-22T20:14:53.068Z,100519.36
2023-05-22T20:17:22.814Z,100520.20
2023-05-22T20:19:50.410Z,100520.88
2023-05-22T20:22:18.935Z,100519.60
2023-05-22T20:24:47.442Z,100521.12
2023-05-22T20:27:15.065Z,100524.33
2023-05-22T20:29:42.670Z,100524.48
2023-05-22T20:32:11.028Z,100527.71
2023-05-22T20:34:38.624Z,100526.96
2023-05-22T20:37:06.856Z,100521.65
2023-05-22T20:39:34.628Z,100524.61
2023-05-22T20:42:03.083Z,100524.73
2023-05-22T20:44:31.868Z,100523.30
2023-05-22T20:47:01.094Z,100518.88
2023-05-22T20:49:30.044Z,100518.40
2023-05-22T20:52:00.235Z,100514.33
2023-05-22T20:54:34.617Z,100516.10
2023-05-22T20:57:02.438Z,100512.92
2023-05-22T20:59:30.089Z,100512.77
2023-05-22T21:01:58.121Z,100514.73
2023-05-22T21:04:26.295Z,100511.54
2023-05-22T21:06:54.635Z,100512.86
2023-05-22T21:09:22.309Z,100513.65
2023-05-22T21:11:50.438Z,100511.89
2023-05-22T21:14:18.049Z,100511.55
2023-05-22T21:16:45.667Z,100511.80
2023-05-22T21:19:13.301Z,100516.43
2023-05-22T21:21:42.707Z,100516.31
2023-05-22T21:24:10.488Z,100514.45
2023-05-22T21:26:38.150Z,100517.50
2023-05-22T21:29:05.992Z,100520.24
2023-05-22T21:31:35.522Z,100519.03
2023-05-22T21:34:03.514Z,100517.69
2023-05-22T21:36:32.174Z,100519.23
2023-05-22T21:39:00.906Z,100518.24
2023-05-22T21:41:28.638Z,100520.23
2023-05-22T21:43:57.216Z,100513.86
2023-05-22T21:46:25.421Z,100515.46
2023-05-22T21:48:54.361Z,100513.97
2023-05-22T21:51:21.924Z,100513.83
2023-05-22T21:53:49.476Z,100517.38
2023-05-22T21:56:17.416Z,100513.54
2023-05-22T21:58:44.995Z,100517.55
2023-05-22T22:01:12.499Z,100520.91
2023-05-22T22:03:40.290Z,100522.64
2023-05-22T22:06:08.236Z,100518.12
2023-05-22T22:08:35.966Z,100520.28
2023-05-22T22:11:05.763Z,100523.02
2023-05-22T22:13:33.327Z,100521.86
2023-05-22T22:16:01.026Z,100527.04
2023-05-22T22:18:32.493Z,100526.93
2023-05-22T22:21:02.557Z,100525.98
2023-05-22T22:23:30.348Z,100528.27
2023-05-22T22:25:57.945Z,100528.21
2023-05-22T22:28:25.696Z,100528.46
2023-05-22T22:30:55.351Z,100528.52
2023-05-22T22:33:23.119Z,100525.75
2023-05-22T22:35:51.550Z,100524.02
2023-05-22T22:38:21.790Z,100519.79
2023-05-22T22:40:49.328Z,100517.31
2023-05-22T22:43:16.913Z,100517.86
2023-05-22T22:45:44.509Z,100515.34
2023-05-22T22:48:12.462Z,100515.70
2023-05-22T22:50:40.275Z,100512.40
2023-05-22T22:53:08.096Z,100510.68
2023-05-22T22:55:35.778Z,100504.89
2023-05-22T22:58:03.444Z,100502.83
2023-05-22T23:00:31.811Z,100501.42
2023-05-22T23:02:59.608Z,100497.87
2023-05-22T23:05:27.213Z,100494.90
2023-05-22T23:07:54.858Z,100494.41
2023-05-22T23:10:22.530Z,100493.83
2023-05-22T23:12:50.390Z,100492.71
2023-05-22T23:15:18.139Z,100492.47
2023-05-22T23:17:45.737Z,100492.33
2023-05-22T23:20:13.561Z,100492.35
2023-05-22T23:22:41.196Z,100489.52
2023-05-22T23:25:09.188Z,100488.52
2023-05-22T23:27:37.466Z,100486.45
2023-05-22T23:30:06.526Z,100491.15
2023-05-22T23:32:34.434Z,100490.12
2023-05-22T23:35:04.044Z,100490.30
2023-05-22T23:37:31.605Z,100485.52
2023-05-22T23:40:00.254Z,100487.11
2023-05-22T23:42:27.907Z,100489.80
2023-05-22T23:44:55.692Z,100489.97
2023-05-22T23:47:23.313Z,100487.67
2023-05-22T23:49:51.851Z,100491.56
2023-05-22T23:52:19.395Z,100493.96
2023-05-22T23:54:47.040Z,100493.64
2023-05-22T23:57:14.919Z,100492.09
2023-05-22T23:59:43.833Z,100489.14
